Time;durP1;ratioP1;P1;durP2;ratioP2;P2;SDS_P1;SDS_P2;PMS_P1;PMS_P2;Temp;Humidity;BMP_temperature;BMP_pressure;BME280_temperature;BME280_humidity;BME280_pressure;Samples;Min_cycle;Max_cycle;Signal;HPM_P1;HPM_P2
2023/03/28 00:02:05;;;;;;;0.77;0.38;;;3.20;94.90;;;;;;5037656;28;20025;-77
2023/03/28 00:04:31;;;;;;;0.95;0.40;;;3.20;95.30;;;;;;5037071;28;20478;-77
2023/03/28 00:06:57;;;;;;;0.30;0.30;;;3.20;95.50;;;;;;5037093;28;20021;-75
2023/03/28 00:09:24;;;;;;;1.80;0.50;;;3.00;95.80;;;;;;5054707;28;20473;-78
2023/03/28 00:11:50;;;;;;;0.75;0.30;;;2.90;96.30;;;;;;5037542;28;20056;-76
2023/03/28 00:14:16;;;;;;;0.85;0.60;;;2.80;96.80;;;;;;5039265;28;20033;-77
2023/03/28 00:16:45;;;;;;;4.85;0.73;;;2.70;96.90;;;;;;5041233;28;20031;-76
2023/03/28 00:19:15;;;;;;;1.95;0.50;;;2.70;97.30;;;;;;5059222;28;20108;-77
2023/03/28 00:21:45;;;;;;;0.98;0.60;;;2.90;97.70;;;;;;5059484;28;20039;-77
2023/03/28 00:24:13;;;;;;;0.80;0.45;;;2.90;97.80;;;;;;5057093;28;20028;-76
2023/03/28 00:26:40;;;;;;;0.90;0.57;;;2.80;98.00;;;;;;5040807;28;20060;-75
2023/03/28 00:29:08;;;;;;;2.08;0.30;;;2.70;98.50;;;;;;5039573;28;20401;-79
2023/03/28 00:31:37;;;;;;;2.88;0.52;;;2.70;99.10;;;;;;5040997;28;20071;-77
2023/03/28 00:34:03;;;;;;;0.35;0.20;;;2.80;99.60;;;;;;5058923;28;20024;-77
2023/03/28 00:36:31;;;;;;;0.65;0.43;;;2.80;99.60;;;;;;5041079;28;20024;-77
2023/03/28 00:39:00;;;;;;;0.25;0.25;;;2.90;99.30;;;;;;5041386;28;20025;-77
2023/03/28 00:41:31;;;;;;;2.85;0.65;;;2.90;99.10;;;;;;5058783;28;20486;-77
2023/03/28 00:43:58;;;;;;;0.95;0.57;;;2.80;99.30;;;;;;5058922;28;20024;-76
2023/03/28 00:46:26;;;;;;;0.22;0.22;;;2.70;99.90;;;;;;5041073;28;20025;-78
2023/03/28 00:48:56;;;;;;;1.10;0.52;;;2.60;99.90;;;;;;5058253;28;20025;-76
2023/03/28 00:51:25;;;;;;;0.32;0.32;;;2.40;99.90;;;;;;5041103;28;20021;-76
2023/03/28 00:53:53;;;;;;;0.50;0.50;;;2.20;99.90;;;;;;5040930;28;20036;-77
2023/03/28 00:56:22;;;;;;;0.60;0.60;;;2.20;99.90;;;;;;5058611;28;20025;-76
2023/03/28 00:58:50;;;;;;;0.40;0.40;;;2.10;99.90;;;;;;5058222;28;20025;-77
2023/03/28 01:01:18;;;;;;;0.32;0.28;;;2.10;99.90;;;;;;5040222;28;20032;-77
2023/03/28 01:03:51;;;;;;;0.57;0.45;;;2.00;99.90;;;;;;5040590;28;20025;-76
2023/03/28 01:06:20;;;;;;;0.45;0.43;;;1.90;99.90;;;;;;5057774;28;20575;-79
2023/03/28 01:08:48;;;;;;;0.30;0.25;;;2.10;99.90;;;;;;5057850;28;20037;-78
2023/03/28 01:11:14;;;;;;;0.73;0.43;;;2.00;99.90;;;;;;5040304;28;20080;-76
2023/03/28 01:13:45;;;;;;;0.30;0.28;;;2.00;99.90;;;;;;5057771;28;20421;-77
2023/03/28 01:16:13;;;;;;;0.82;0.40;;;2.00;99.90;;;;;;5039491;28;20074;-77
2023/03/28 01:18:40;;;;;;;0.65;0.30;;;2.00;99.90;;;;;;5057424;28;20013;-77
2023/03/28 01:21:27;;;;;;;0.30;0.30;;;2.20;99.90;;;;;;5058296;28;20071;-75
2023/03/28 01:24:37;;;;;;;0.25;0.25;;;2.10;99.90;;;;;;5064688;28;20009;-78
2023/03/28 01:27:14;;;;;;;0.68;0.30;;;2.10;99.90;;;;;;4992744;28;20034;-79
2023/03/28 01:30:00;;;;;;;0.35;0.35;;;2.10;99.90;;;;;;5008960;28;20030;-78
2023/03/28 01:32:41;;;;;;;0.30;0.30;;;2.10;99.90;;;;;;5052115;28;20090;-77
2023/03/28 01:35:10;;;;;;;0.52;0.22;;;2.00;99.90;;;;;;5040380;28;20477;-78
2023/03/28 01:37:59;;;;;;;0.68;0.35;;;2.00;99.90;;;;;;5039741;28;20017;-76
2023/03/28 01:40:36;;;;;;;0.20;0.20;;;1.80;99.90;;;;;;5039824;28;20033;-75
2023/03/28 01:43:20;;;;;;;0.95;0.30;;;1.70;99.90;;;;;;5040101;28;20021;-76
2023/03/28 01:46:10;;;;;;;1.08;0.55;;;1.60;99.90;;;;;;5057353;28;20029;-76
2023/03/28 01:48:44;;;;;;;0.28;0.17;;;1.60;99.90;;;;;;5039060;28;20025;-76
2023/03/28 01:51:23;;;;;;;0.38;0.32;;;1.50;99.90;;;;;;5039028;28;20028;-78
2023/03/28 01:53:59;;;;;;;0.38;0.35;;;1.50;99.90;;;;;;5037803;28;20405;-76
2023/03/28 01:56:41;;;;;;;0.30;0.30;;;1.40;99.90;;;;;;5039115;28;20032;-75
2023/03/28 01:59:16;;;;;;;0.30;0.30;;;1.50;99.90;;;;;;5039365;28;20033;-77
2023/03/28 02:02:05;;;;;;;0.50;0.50;;;1.50;99.90;;;;;;5038965;28;20025;-76
2023/03/28 02:04:34;;;;;;;0.50;0.50;;;1.40;99.90;;;;;;5038899;28;20029;-78
2023/03/28 02:07:00;;;;;;;1.13;0.50;;;1.30;99.90;;;;;;5038871;28;20059;-75
2023/03/28 02:09:28;;;;;;;0.40;0.40;;;1.20;99.90;;;;;;5038733;28;20040;-77
2023/03/28 02:12:00;;;;;;;4.15;0.63;;;1.20;99.90;;;;;;5056813;28;20108;-77
2023/03/28 02:14:31;;;;;;;0.40;0.38;;;1.10;99.90;;;;;;5057720;28;20116;-77
2023/03/28 02:17:06;;;;;;;0.80;0.50;;;1.10;99.90;;;;;;5039047;28;20028;-77
2023/03/28 02:19:34;;;;;;;1.45;0.65;;;1.10;99.90;;;;;;5038891;28;20029;-76
2023/03/28 02:22:24;;;;;;;1.13;0.32;;;1.00;99.90;;;;;;5054930;28;20083;-78
2023/03/28 02:24:50;;;;;;;0.57;0.57;;;1.00;99.90;;;;;;5038364;28;20036;-77
2023/03/28 02:27:21;;;;;;;1.20;0.50;;;0.80;99.90;;;;;;5038487;28;20493;-78
2023/03/28 02:29:48;;;;;;;1.67;0.50;;;0.90;99.90;;;;;;5056455;28;20021;-77
2023/03/28 02:32:15;;;;;;;0.30;0.30;;;0.70;99.90;;;;;;5038166;28;20072;-78
2023/03/28 02:34:44;;;;;;;0.50;0.40;;;0.60;99.90;;;;;;5056468;28;20029;-77
2023/03/28 02:37:28;;;;;;;0.38;0.32;;;0.60;99.90;;;;;;5038931;28;20025;-79
2023/03/28 02:40:31;;;;;;;0.70;0.50;;;0.50;99.90;;;;;;5038849;28;20025;-77
2023/03/28 02:43:09;;;;;;;2.08;0.50;;;0.60;99.90;;;;;;5015729;28;20040;-77
2023/03/28 02:45:43;;;;;;;1.15;0.47;;;0.60;99.90;;;;;;5038489;28;20025;-77
2023/03/28 02:48:28;;;;;;;0.50;0.40;;;0.50;99.90;;;;;;5038022;28;20500;-77
2023/03/28 02:51:09;;;;;;;0.30;0.30;;;0.40;99.90;;;;;;5038401;28;20021;-77
2023/03/28 02:53:49;;;;;;;1.70;0.32;;;0.40;99.90;;;;;;5038626;28;20041;-77
2023/03/28 02:56:25;;;;;;;0.22;0.22;;;0.30;99.90;;;;;;5056400;28;20022;-77
2023/03/28 02:59:15;;;;;;;0.30;0.30;;;0.20;99.90;;;;;;5055855;28;20027;-77
2023/03/28 03:01:42;;;;;;;0.28;0.28;;;0.10;99.90;;;;;;5038135;28;20108;-77
2023/03/28 03:04:08;;;;;;;0.50;0.40;;;0.10;99.90;;;;;;5056230;28;20055;-78
2023/03/28 03:06:35;;;;;;;2.00;0.40;;;0.00;99.90;;;;;;5038140;28;20020;-78
2023/03/28 03:09:03;;;;;;;0.52;0.45;;;0.00;99.90;;;;;;5055957;28;20029;-77
2023/03/28 03:11:29;;;;;;;1.08;0.32;;;-0.10;99.90;;;;;;5038418;28;20025;-78
2023/03/28 03:13:56;;;;;;;1.20;0.43;;;0.00;99.90;;;;;;5055933;28;20078;-77
2023/03/28 03:16:22;;;;;;;0.70;0.50;;;0.20;99.90;;;;;;5055804;28;20017;-79
2023/03/28 03:18:48;;;;;;;0.50;0.40;;;0.70;99.90;;;;;;5055324;28;20045;-78
2023/03/28 03:21:14;;;;;;;2.00;0.50;;;1.20;99.90;;;;;;5056058;28;20078;-76
2023/03/28 03:23:40;;;;;;;1.13;0.90;;;0.80;99.90;;;;;;5053819;28;20024;-78
2023/03/28 03:26:06;;;;;;;0.65;0.43;;;1.00;99.90;;;;;;5055646;28;20029;-77
2023/03/28 03:28:32;;;;;;;1.13;0.73;;;1.20;99.90;;;;;;5037432;28;20167;-77
2023/03/28 03:30:57;;;;;;;0.88;0.52;;;1.40;99.90;;;;;;5037735;28;20401;-77
2023/03/28 03:33:23;;;;;;;2.20;0.57;;;1.30;99.90;;;;;;5055723;28;20045;-76
2023/03/28 03:35:50;;;;;;;0.40;0.40;;;1.30;99.90;;;;;;5037943;28;20047;-78
2023/03/28 03:38:15;;;;;;;1.02;0.60;;;1.40;99.90;;;;;;5037709;28;20021;-76
2023/03/28 03:40:41;;;;;;;0.20;0.20;;;1.40;99.90;;;;;;5037615;28;20048;-76
2023/03/28 03:43:06;;;;;;;0.80;0.20;;;1.50;99.90;;;;;;5055841;28;20044;-77
2023/03/28 03:45:32;;;;;;;2.65;0.32;;;1.50;99.90;;;;;;5037545;28;20052;-78
2023/03/28 03:47:58;;;;;;;0.57;0.50;;;1.60;99.90;;;;;;5038093;28;20029;-77
2023/03/28 03:50:23;;;;;;;0.22;0.22;;;1.50;99.00;;;;;;5041711;28;20394;-75
2023/03/28 03:52:49;;;;;;;0.25;0.25;;;1.60;98.50;;;;;;5042143;28;20051;-77
2023/03/28 03:55:15;;;;;;;0.30;0.30;;;1.60;98.20;;;;;;5041464;28;20126;-77
2023/03/28 03:57:40;;;;;;;0.47;0.22;;;1.60;97.70;;;;;;5059908;28;20027;-78
2023/03/28 04:00:10;;;;;;;0.98;0.30;;;1.60;97.10;;;;;;5041462;28;20119;-77
2023/03/28 04:02:37;;;;;;;0.28;0.20;;;1.70;96.90;;;;;;5041403;28;20489;-78
2023/03/28 04:05:03;;;;;;;0.43;0.43;;;1.70;96.30;;;;;;5041780;28;20438;-78
2023/03/28 04:07:28;;;;;;;3.63;0.40;;;1.70;96.00;;;;;;5041321;28;20056;-75
2023/03/28 04:09:55;;;;;;;0.35;0.25;;;1.80;96.20;;;;;;5041960;28;20029;-76
2023/03/28 04:12:21;;;;;;;0.30;0.30;;;1.70;95.90;;;;;;5041973;28;20021;-76
2023/03/28 04:14:47;;;;;;;0.52;0.20;;;1.70;96.10;;;;;;5060175;28;20036;-75
2023/03/28 04:17:14;;;;;;;1.65;0.35;;;1.80;96.50;;;;;;5042168;28;20021;-77
2023/03/28 04:19:40;;;;;;;0.38;0.30;;;1.60;96.90;;;;;;5041117;28;20029;-77
2023/03/28 04:22:11;;;;;;;0.25;0.25;;;1.60;97.40;;;;;;5039601;28;20394;-76
2023/03/28 04:24:40;;;;;;;3.53;0.40;;;1.50;97.30;;;;;;5059261;28;20025;-77
2023/03/28 04:27:08;;;;;;;1.30;0.40;;;1.40;97.90;;;;;;5042239;28;20025;-75
2023/03/28 04:29:35;;;;;;;1.17;0.63;;;1.40;98.00;;;;;;5058933;28;20103;-77
2023/03/28 04:32:04;;;;;;;0.52;0.52;;;1.40;98.40;;;;;;5058927;28;20021;-78
2023/03/28 04:34:30;;;;;;;0.43;0.43;;;1.40;98.50;;;;;;5040823;28;20024;-77
2023/03/28 04:37:01;;;;;;;1.77;0.32;;;1.30;98.50;;;;;;5041054;28;20031;-76
2023/03/28 04:39:31;;;;;;;1.02;0.60;;;1.20;98.80;;;;;;5058478;28;20493;-77
2023/03/28 04:42:00;;;;;;;0.93;0.45;;;1.20;98.30;;;;;;5041283;28;20043;-76
2023/03/28 04:44:28;;;;;;;2.55;1.10;;;1.10;98.30;;;;;;5059230;28;20090;-77
2023/03/28 04:46:55;;;;;;;1.70;0.70;;;1.50;98.10;;;;;;5041093;28;20021;-77
2023/03/28 04:49:21;;;;;;;1.48;0.45;;;1.40;98.50;;;;;;5062533;28;20108;-78
2023/03/28 04:51:47;;;;;;;0.40;0.40;;;1.50;98.90;;;;;;5062662;28;20035;-77
2023/03/28 04:54:13;;;;;;;1.00;0.38;;;0.90;99.80;;;;;;5059725;28;20055;-79
2023/03/28 04:56:39;;;;;;;2.05;0.32;;;0.80;99.90;;;;;;5041146;28;20494;-77
2023/03/28 04:59:05;;;;;;;0.68;0.30;;;0.90;99.90;;;;;;5059388;28;20453;-78
2023/03/28 05:01:31;;;;;;;0.25;0.25;;;1.00;99.90;;;;;;5059628;28;20106;-75
2023/03/28 05:03:57;;;;;;;0.30;0.30;;;1.10;99.90;;;;;;5040538;28;20032;-76
2023/03/28 05:06:24;;;;;;;0.95;0.52;;;0.60;99.90;;;;;;5057874;28;20025;-77
2023/03/28 05:08:50;;;;;;;0.40;0.30;;;0.50;99.90;;;;;;5040828;28;20075;-77
2023/03/28 05:11:16;;;;;;;0.20;0.20;;;0.40;99.90;;;;;;5058739;28;20021;-78
2023/03/28 05:13:41;;;;;;;0.55;0.40;;;0.30;99.90;;;;;;5040683;28;20520;-77
2023/03/28 05:16:07;;;;;;;2.70;0.40;;;0.20;99.90;;;;;;5040558;28;20116;-78
2023/03/28 05:18:33;;;;;;;0.93;0.93;;;0.30;99.90;;;;;;5040429;28;20547;-77
2023/03/28 05:20:59;;;;;;;1.05;0.90;;;0.20;99.90;;;;;;5058636;28;20033;-78
2023/03/28 05:23:25;;;;;;;4.13;1.92;;;0.30;99.90;;;;;;5039753;28;20024;-76
2023/03/28 05:25:52;;;;;;;3.38;1.88;;;0.60;99.90;;;;;;5040566;28;20029;-76
2023/03/28 05:28:18;;;;;;;1.17;0.77;;;0.60;99.90;;;;;;5040570;28;20112;-81
2023/03/28 05:30:44;;;;;;;1.67;1.23;;;0.40;99.90;;;;;;5040929;28;20051;-77
2023/03/28 05:33:10;;;;;;;4.93;1.00;;;0.60;99.90;;;;;;5058225;28;20028;-77
2023/03/28 05:35:36;;;;;;;2.13;1.10;;;0.80;99.90;;;;;;5040370;28;20401;-76
2023/03/28 05:38:03;;;;;;;0.98;0.95;;;0.80;99.90;;;;;;5039515;28;20090;-77
2023/03/28 05:40:29;;;;;;;2.15;1.45;;;0.80;99.90;;;;;;5058010;28;20033;-76
2023/03/28 05:42:54;;;;;;;1.50;0.88;;;1.00;99.90;;;;;;5040016;28;20160;-76
2023/03/28 05:45:20;;;;;;;1.50;0.90;;;1.00;99.90;;;;;;5058728;28;20033;-77
2023/03/28 05:47:50;;;;;;;0.77;0.52;;;1.00;99.90;;;;;;5058210;28;20028;-80
2023/03/28 05:50:16;;;;;;;0.45;0.43;;;1.60;99.90;;;;;;5057828;28;20100;-77
2023/03/28 05:52:42;;;;;;;0.85;0.65;;;1.50;98.00;;;;;;5039723;28;20025;-77
2023/03/28 05:55:08;;;;;;;2.05;0.90;;;1.50;97.40;;;;;;5057678;28;20400;-77
2023/03/28 05:57:34;;;;;;;5.63;1.40;;;1.70;97.30;;;;;;5038989;28;20025;-76
2023/03/28 06:00:00;;;;;;;0.43;0.43;;;3.10;99.90;;;;;;5041215;28;20496;-77
2023/03/28 06:02:28;;;;;;;0.55;0.50;;;3.00;92.50;;;;;;5039993;28;20025;-81
2023/03/28 06:04:54;;;;;;;0.20;0.20;;;2.90;91.60;;;;;;5041852;28;20051;-77
2023/03/28 06:07:20;;;;;;;2.30;0.30;;;2.80;91.10;;;;;;5040390;28;20029;-78
2023/03/28 06:09:46;;;;;;;0.40;0.40;;;2.80;89.60;;;;;;5058507;28;20546;-78
2023/03/28 06:12:12;;;;;;;1.13;0.50;;;2.80;90.60;;;;;;5039583;28;20116;-79
2023/03/28 06:14:38;;;;;;;2.38;0.40;;;2.80;89.60;;;;;;5040210;28;20075;-79
2023/03/28 06:17:03;;;;;;;0.98;0.40;;;3.00;86.70;;;;;;5058082;28;20478;-77
2023/03/28 06:19:29;;;;;;;0.75;0.40;;;3.00;86.10;;;;;;5057822;28;20050;-80
2023/03/28 06:21:55;;;;;;;1.17;0.40;;;3.00;85.90;;;;;;5040318;28;20021;-79
2023/03/28 06:24:21;;;;;;;3.75;0.50;;;3.30;84.60;;;;;;5040417;28;20028;-81
2023/03/28 06:26:47;;;;;;;1.65;0.60;;;3.20;83.10;;;;;;5039719;28;20508;-78
2023/03/28 06:29:12;;;;;;;4.88;0.77;;;3.20;81.50;;;;;;5039806;28;20032;-78
2023/03/28 06:31:38;;;;;;;5.60;0.70;;;3.40;81.50;;;;;;5040558;28;20028;-76
2023/03/28 06:34:03;;;;;;;5.13;2.50;;;3.40;79.00;;;;;;5058220;28;20098;-79
2023/03/28 06:36:29;;;;;;;2.55;0.60;;;3.50;79.30;;;;;;5040753;28;20201;-77
2023/03/28 06:38:57;;;;;;;0.45;0.30;;;3.50;75.70;;;;;;5040110;28;20025;-78
2023/03/28 06:41:22;;;;;;;0.65;0.22;;;3.60;74.40;;;;;;5040422;28;20024;-77
2023/03/28 06:43:48;;;;;;;0.20;0.20;;;3.70;74.00;;;;;;5060034;28;20477;-76
2023/03/28 06:46:15;;;;;;;0.28;0.28;;;3.70;72.10;;;;;;5056798;28;20025;-77
2023/03/28 06:48:41;;;;;;;0.35;0.17;;;3.80;70.90;;;;;;5038757;28;20382;-76
2023/03/28 06:51:07;;;;;;;0.30;0.30;;;3.80;69.50;;;;;;5038783;28;20397;-77
2023/03/28 06:53:34;;;;;;;0.20;0.20;;;3.90;68.70;;;;;;5056356;28;20029;-76
2023/03/28 06:56:00;;;;;;;0.43;0.20;;;4.00;69.40;;;;;;5056942;28;20021;-78
2023/03/28 06:58:26;;;;;;;0.17;0.17;;;4.10;68.40;;;;;;5038555;28;20408;-77
2023/03/28 07:00:52;;;;;;;0.55;0.20;;;4.10;66.40;;;;;;5055567;28;20489;-82
2023/03/28 07:03:18;;;;;;;2.22;0.38;;;4.10;67.40;;;;;;5038684;28;20032;-77
2023/03/28 07:05:44;;;;;;;0.40;0.40;;;4.20;67.90;;;;;;5055981;28;20021;-77
2023/03/28 07:08:12;;;;;;;0.30;0.30;;;4.30;66.50;;;;;;5038503;28;20025;-78
2023/03/28 07:10:39;;;;;;;1.27;0.30;;;4.40;64.20;;;;;;5038801;28;20036;-77
2023/03/28 07:13:05;;;;;;;1.88;0.80;;;4.30;64.20;;;;;;5056683;28;20096;-77
2023/03/28 07:15:31;;;;;;;1.00;0.47;;;4.30;63.20;;;;;;5038818;28;20017;-80
2023/03/28 07:17:57;;;;;;;0.20;0.20;;;4.30;63.40;;;;;;5038532;28;20389;-77
2023/03/28 07:20:23;;;;;;;0.30;0.30;;;4.30;63.60;;;;;;5038670;28;20056;-77
2023/03/28 07:22:49;;;;;;;0.47;0.30;;;4.40;65.20;;;;;;5038482;28;20374;-76
2023/03/28 07:25:15;;;;;;;0.20;0.20;;;4.50;62.60;;;;;;5037926;28;20079;-77
2023/03/28 07:27:41;;;;;;;0.20;0.20;;;4.50;64.30;;;;;;5039139;28;20021;-78
2023/03/28 07:30:07;;;;;;;0.38;0.20;;;4.60;64.40;;;;;;5057289;28;20033;-77
2023/03/28 07:32:35;;;;;;;0.47;0.10;;;4.60;63.00;;;;;;5037438;28;20390;-78
2023/03/28 07:35:01;;;;;;;0.60;0.30;;;4.70;65.60;;;;;;5038477;28;20501;-76
2023/03/28 07:37:26;;;;;;;0.15;0.15;;;4.80;64.10;;;;;;5038750;28;20086;-80
2023/03/28 07:39:53;;;;;;;0.30;0.10;;;4.90;63.50;;;;;;5038314;28;20382;-77
2023/03/28 07:42:19;;;;;;;0.55;0.20;;;4.90;64.10;;;;;;5056913;28;20044;-76
2023/03/28 07:44:44;;;;;;;0.22;0.20;;;4.90;63.80;;;;;;5038936;28;20025;-77
2023/03/28 07:47:11;;;;;;;0.10;0.10;;;4.90;63.60;;;;;;5037674;28;20112;-77
2023/03/28 07:49:36;;;;;;;0.30;0.20;;;5.00;63.80;;;;;;5036191;28;20112;-80
2023/03/28 07:52:03;;;;;;;0.82;0.30;;;5.20;63.90;;;;;;5053590;28;20068;-79
2023/03/28 07:54:31;;;;;;;0.60;0.20;;;5.40;63.50;;;;;;5036142;28;20060;-80
2023/03/28 07:56:57;;;;;;;1.95;0.77;;;5.50;65.20;;;;;;5036284;28;20071;-79
2023/03/28 07:59:24;;;;;;;0.38;0.38;;;5.60;64.00;;;;;;5035927;28;20055;-79
2023/03/28 08:01:51;;;;;;;0.30;0.20;;;5.60;62.30;;;;;;5036099;28;20025;-79
2023/03/28 08:04:17;;;;;;;0.20;0.20;;;5.50;63.40;;;;;;5036091;28;20091;-78
2023/03/28 08:06:44;;;;;;;0.20;0.20;;;5.70;63.40;;;;;;5035782;28;20039;-74
2023/03/28 08:09:13;;;;;;;0.50;0.50;;;5.90;61.80;;;;;;5035703;28;20021;-76
2023/03/28 08:11:39;;;;;;;0.85;0.30;;;5.90;61.30;;;;;;5054470;28;20496;-76
2023/03/28 08:14:08;;;;;;;2.25;0.25;;;5.80;60.10;;;;;;5036331;28;20120;-75
2023/03/28 08:16:34;;;;;;;0.15;0.15;;;5.70;60.20;;;;;;5052219;28;20017;-76
2023/03/28 08:19:00;;;;;;;0.98;0.17;;;5.40;59.20;;;;;;5034453;28;20120;-76
2023/03/28 08:21:29;;;;;;;1.10;0.10;;;5.30;60.10;;;;;;5052560;28;20100;-76
2023/03/28 08:23:56;;;;;;;0.80;0.10;;;5.20;59.20;;;;;;5033987;28;20017;-78
2023/03/28 08:26:22;;;;;;;0.38;0.20;;;5.10;58.90;;;;;;5033195;28;20017;-77
2023/03/28 08:28:48;;;;;;;0.25;0.13;;;5.20;59.80;;;;;;5054249;28;20370;-78
2023/03/28 08:31:15;;;;;;;1.75;0.30;;;5.30;59.00;;;;;;5036572;28;20055;-77
2023/03/28 08:33:50;;;;;;;0.85;0.30;;;5.50;61.80;;;;;;5036717;28;20051;-77
2023/03/28 08:36:16;;;;;;;0.13;0.13;;;5.70;60.80;;;;;;5037717;28;20020;-75
2023/03/28 08:38:43;;;;;;;0.22;0.20;;;5.60;58.80;;;;;;5056830;28;20076;-80
2023/03/28 08:41:48;;;;;;;0.47;0.10;;;5.60;57.20;;;;;;5039262;28;20389;-79
2023/03/28 08:44:38;;;;;;;0.22;0.20;;;5.60;58.40;;;;;;5039425;28;20035;-79
2023/03/28 08:47:20;;;;;;;0.10;0.10;;;5.70;58.50;;;;;;5039839;28;20061;-76
2023/03/28 08:50:14;;;;;;;2.00;0.40;;;5.90;59.90;;;;;;5056850;28;20029;-77
2023/03/28 08:52:41;;;;;;;0.20;0.20;;;5.90;60.10;;;;;;5036528;28;20496;-74
2023/03/28 08:55:33;;;;;;;0.63;0.63;;;6.20;58.80;;;;;;5055339;28;20021;-76
2023/03/28 08:58:00;;;;;;;0.15;0.15;;;6.30;55.80;;;;;;5033661;28;20051;-77
2023/03/28 09:00:32;;;;;;;0.10;0.10;;;6.50;55.10;;;;;;5056351;28;20028;-77
2023/03/28 09:02:59;;;;;;;0.22;0.10;;;6.40;54.10;;;;;;5039325;28;20505;-77
2023/03/28 09:05:42;;;;;;;0.40;0.30;;;6.50;54.00;;;;;;5057031;28;20087;-77
2023/03/28 09:08:21;;;;;;;0.28;0.13;;;6.30;53.10;;;;;;5038805;28;20059;-76
2023/03/28 09:11:13;;;;;;;0.65;0.30;;;6.40;54.30;;;;;;5037859;28;20025;-75
2023/03/28 09:14:01;;;;;;;0.28;0.28;;;6.30;54.60;;;;;;5038353;28;20018;-77
2023/03/28 09:16:30;;;;;;;0.73;0.40;;;6.40;55.00;;;;;;5056680;28;20064;-77
2023/03/28 09:18:56;;;;;;;0.55;0.50;;;6.40;55.70;;;;;;5039281;28;20425;-76
2023/03/28 09:21:40;;;;;;;0.15;0.15;;;6.20;54.10;;;;;;5039751;28;20030;-75
2023/03/28 09:24:25;;;;;;;0.10;0.08;;;6.10;53.50;;;;;;5039156;28;20021;-76
2023/03/28 09:27:10;;;;;;;0.40;0.20;;;6.00;54.10;;;;;;5040141;28;20086;-77
2023/03/28 09:29:38;;;;;;;0.10;0.10;;;6.20;55.30;;;;;;5039697;28;20032;-75
2023/03/28 09:32:22;;;;;;;0.20;0.20;;;6.00;53.70;;;;;;5057258;28;20024;-77
2023/03/28 09:34:50;;;;;;;0.63;0.20;;;5.90;53.70;;;;;;5039205;28;20018;-76
2023/03/28 09:37:30;;;;;;;0.10;0.10;;;6.10;54.00;;;;;;5038962;28;20094;-77
2023/03/28 09:40:13;;;;;;;1.85;0.20;;;6.20;56.00;;;;;;5057636;28;20025;-77
2023/03/28 09:42:48;;;;;;;0.55;0.20;;;6.20;54.80;;;;;;5038099;28;20036;-76
2023/03/28 09:45:25;;;;;;;0.70;0.40;;;6.20;54.60;;;;;;5038906;28;20600;-77
2023/03/28 09:47:51;;;;;;;0.20;0.20;;;6.20;53.50;;;;;;5055654;28;20025;-78
2023/03/28 09:50:18;;;;;;;1.95;0.25;;;6.30;55.10;;;;;;5039147;28;20040;-76
2023/03/28 09:52:45;;;;;;;0.30;0.30;;;6.40;53.70;;;;;;5055946;28;20111;-74
2023/03/28 09:55:21;;;;;;;0.50;0.47;;;6.40;55.90;;;;;;5055888;28;20025;-76
2023/03/28 09:58:00;;;;;;;0.40;0.35;;;6.50;54.70;;;;;;5038492;28;20063;-79
2023/03/28 10:00:26;;;;;;;1.85;0.30;;;6.30;52.90;;;;;;5039380;28;20033;-78
2023/03/28 10:02:52;;;;;;;0.35;0.10;;;6.20;53.10;;;;;;5038533;28;20054;-78
2023/03/28 10:05:38;;;;;;;1.17;1.08;;;6.20;53.90;;;;;;5038612;28;20071;-76
2023/03/28 10:08:21;;;;;;;0.25;0.20;;;6.40;55.00;;;;;;5038944;28;20404;-78
2023/03/28 10:11:08;;;;;;;1.23;0.40;;;6.20;54.40;;;;;;5039069;28;20452;-79
2023/03/28 10:13:41;;;;;;;0.45;0.32;;;6.30;54.60;;;;;;5057115;28;20025;-77
2023/03/28 10:16:09;;;;;;;0.20;0.20;;;6.30;53.60;;;;;;5038716;28;20028;-75
2023/03/28 10:18:37;;;;;;;1.23;0.50;;;6.40;54.10;;;;;;5057300;28;20051;-77
2023/03/28 10:21:10;;;;;;;0.98;0.30;;;6.30;53.40;;;;;;5057054;28;20085;-76
2023/03/28 10:23:39;;;;;;;0.45;0.30;;;6.30;54.10;;;;;;5037399;28;20031;-77
2023/03/28 10:26:07;;;;;;;0.30;0.28;;;6.50;54.90;;;;;;5038309;28;20028;-78
2023/03/28 10:28:35;;;;;;;2.72;0.30;;;6.50;55.60;;;;;;5036793;28;20124;-76
2023/03/28 10:31:02;;;;;;;0.20;0.20;;;6.50;50.60;;;;;;5037829;28;20021;-79
2023/03/28 10:33:39;;;;;;;0.10;0.10;;;6.50;52.00;;;;;;5039240;28;20037;-78
2023/03/28 10:36:11;;;;;;;0.10;0.10;;;6.30;54.30;;;;;;5038194;28;20107;-78
2023/03/28 10:38:45;;;;;;;2.83;0.50;;;6.40;55.60;;;;;;5056772;28;20030;-77
2023/03/28 10:41:19;;;;;;;0.95;0.30;;;6.50;53.40;;;;;;5056528;28;20074;-78
2023/03/28 10:43:45;;;;;;;0.45;0.10;;;6.50;52.70;;;;;;5038392;28;20029;-78
2023/03/28 10:46:15;;;;;;;0.35;0.20;;;6.40;52.30;;;;;;5037554;28;20052;-77
2023/03/28 10:48:46;;;;;;;1.33;0.25;;;6.50;52.80;;;;;;5056203;28;20114;-78
2023/03/28 10:51:21;;;;;;;0.25;0.20;;;6.40;54.70;;;;;;5038714;28;20035;-78
2023/03/28 10:54:04;;;;;;;0.20;0.20;;;6.30;55.30;;;;;;5056016;28;20040;-77
2023/03/28 10:56:33;;;;;;;0.20;0.20;;;6.30;54.50;;;;;;5055825;28;20254;-77
2023/03/28 10:59:21;;;;;;;2.92;0.43;;;6.40;55.40;;;;;;5054299;28;20021;-78
2023/03/28 11:02:17;;;;;;;0.10;0.10;;;6.60;55.80;;;;;;5036534;28;20031;-78
2023/03/28 11:05:27;;;;;;;0.10;0.10;;;6.40;54.20;;;;;;5037465;28;20017;-78
2023/03/28 11:07:52;;;;;;;0.60;0.38;;;6.40;57.90;;;;;;5055839;28;20013;-76
2023/03/28 11:10:18;;;;;;;0.10;0.10;;;6.70;59.10;;;;;;5054306;28;20059;-77
2023/03/28 11:13:08;;;;;;;0.30;0.25;;;6.80;56.00;;;;;;5035852;28;20029;-78
2023/03/28 11:15:52;;;;;;;0.40;0.20;;;6.80;57.30;;;;;;5038026;28;20021;-78
2023/03/28 11:18:52;;;;;;;0.17;0.10;;;6.60;55.50;;;;;;5055631;28;20024;-77
2023/03/28 11:21:47;;;;;;;0.63;0.30;;;6.60;55.40;;;;;;5038071;28;20017;-78
2023/03/28 11:24:30;;;;;;;4.47;0.20;;;6.70;55.90;;;;;;5037952;28;20020;-77
2023/03/28 11:27:06;;;;;;;1.00;0.30;;;6.80;55.80;;;;;;5037799;28;20021;-77
2023/03/28 11:29:38;;;;;;;0.10;0.10;;;6.80;53.30;;;;;;5054627;28;20029;-78
2023/03/28 11:32:14;;;;;;;0.80;0.17;;;6.80;54.80;;;;;;5056205;28;20025;-77
2023/03/28 11:34:47;;;;;;;;;;;7.00;53.50;;;;;;5037739;28;20506;-78
2023/03/28 11:37:21;;;;;;;1.75;0.28;;;6.90;52.60;;;;;;5056197;28;19905;-80
2023/03/28 11:39:47;;;;;;;0.30;0.30;;;6.80;52.10;;;;;;5055558;28;20033;-76
2023/03/28 11:42:35;;;;;;;0.63;0.10;;;6.90;52.60;;;;;;5036002;28;20036;-77
2023/03/28 11:45:10;;;;;;;0.20;0.20;;;6.80;52.00;;;;;;5038249;28;20103;-76
2023/03/28 11:47:41;;;;;;;1.23;0.30;;;6.80;52.00;;;;;;5052523;28;20021;-78
2023/03/28 11:50:16;;;;;;;0.13;0.10;;;6.70;49.30;;;;;;5034903;28;20029;-77
2023/03/28 11:52:51;;;;;;;0.40;0.30;;;6.70;49.20;;;;;;5018988;28;20517;-77
2023/03/28 11:55:25;;;;;;;2.42;0.40;;;7.00;52.30;;;;;;5018702;28;20564;-76
2023/03/28 11:58:07;;;;;;;0.05;0.05;;;7.10;51.30;;;;;;5052367;28;20018;-79
2023/03/28 12:01:00;;;;;;;1.98;0.20;;;7.10;50.30;;;;;;5051851;28;20112;-77
2023/03/28 12:03:53;;;;;;;0.35;0.13;;;7.00;50.80;;;;;;5046336;28;20127;-76
2023/03/28 12:06:26;;;;;;;1.55;0.50;;;7.00;48.60;;;;;;5052305;28;20032;-77
2023/03/28 12:09:19;;;;;;;0.30;0.30;;;7.10;49.10;;;;;;5051462;28;20033;-77
2023/03/28 12:11:44;;;;;;;1.25;0.20;;;7.10;49.90;;;;;;5054263;28;20107;-79
2023/03/28 12:14:30;;;;;;;0.10;0.10;;;7.30;49.60;;;;;;5055470;28;20109;-78
2023/03/28 12:16:57;;;;;;;0.30;0.28;;;7.20;49.60;;;;;;5056596;28;20375;-79
2023/03/28 12:19:39;;;;;;;2.40;0.13;;;7.40;49.40;;;;;;5056389;28;20025;-79
2023/03/28 12:22:39;;;;;;;0.20;0.20;;;7.30;49.70;;;;;;5055847;28;20080;-79
2023/03/28 12:25:20;;;;;;;1.98;0.22;;;7.20;50.40;;;;;;5057144;28;20017;-77
2023/03/28 12:28:11;;;;;;;1.40;0.30;;;7.00;49.70;;;;;;5056754;28;20013;-79
2023/03/28 12:30:55;;;;;;;0.30;0.30;;;7.30;52.40;;;;;;5056301;28;20029;-76
2023/03/28 12:33:42;;;;;;;3.25;0.70;;;7.60;51.00;;;;;;5055275;28;20017;-76
2023/03/28 12:37:13;;;;;;;0.10;0.10;;;7.70;50.80;;;;;;5056612;28;20055;-78
2023/03/28 12:40:18;;;;;;;0.10;0.10;;;7.20;51.30;;;;;;4995827;28;20037;-76
2023/03/28 12:42:46;;;;;;;0.40;0.28;;;7.20;52.50;;;;;;5056987;28;20029;-77
2023/03/28 12:45:22;;;;;;;0.55;0.20;;;7.30;52.10;;;;;;5059201;28;20103;-76
2023/03/28 12:47:52;;;;;;;0.40;0.20;;;7.20;53.30;;;;;;5056079;28;20021;-75
2023/03/28 12:50:31;;;;;;;0.65;0.30;;;7.30;52.90;;;;;;5056569;28;20040;-77
2023/03/28 12:52:58;;;;;;;0.25;0.25;;;7.30;53.80;;;;;;5056893;28;20033;-76
2023/03/28 12:55:24;;;;;;;0.93;0.13;;;7.30;52.80;;;;;;5055619;28;20021;-76
2023/03/28 12:58:09;;;;;;;1.90;0.43;;;7.40;53.70;;;;;;5057057;28;20021;-76
2023/03/28 13:00:46;;;;;;;0.77;0.30;;;7.00;50.90;;;;;;5055122;28;20044;-76
2023/03/28 13:03:42;;;;;;;0.13;0.13;;;7.00;53.50;;;;;;5055983;28;20032;-76
2023/03/28 13:06:31;;;;;;;0.20;0.20;;;7.00;53.80;;;;;;5051429;28;20033;-76
2023/03/28 13:09:32;;;;;;;0.73;0.43;;;7.30;55.80;;;;;;5054937;28;20029;-78
2023/03/28 13:12:02;;;;;;;9.85;1.08;;;7.40;55.20;;;;;;5054701;28;20071;-80
2023/03/28 13:14:34;;;;;;;2.35;0.50;;;7.60;53.90;;;;;;5054230;28;20029;-79
2023/03/28 13:17:18;;;;;;;0.52;0.35;;;7.70;55.40;;;;;;5053665;28;20021;-75
2023/03/28 13:20:06;;;;;;;0.50;0.20;;;8.00;57.10;;;;;;5053377;28;20083;-76
2023/03/28 13:22:53;;;;;;;6.60;0.35;;;7.70;53.90;;;;;;5052345;28;20059;-77
2023/03/28 13:25:25;;;;;;;0.68;0.28;;;7.60;52.40;;;;;;5053826;28;20025;-74